.
WxDataArchive / Data Records for 2010-08-22
2010-08-21 August 2010 2010-08-23

Data Records for Sunday, 22 August 2010

Time	Temp	Chill	HIndex	Humid	Dewpt	 Wind 	HiWind	WindDir	Rain 	Barom 
-----	----	-----	------	-----	-----	------	------	-------	-----	----- 
00:00	70.8	70.8	70.8	90	67.7	0	0	---	0.00	29.887 
00:05	70.6	70.6	70.6	90	67.5	0	1	338	0.00	29.887 
00:10	70.6	70.6	70.6	91	67.8	0	1	338	0.00	29.887 
00:15	70.6	70.6	70.6	91	67.8	0	0	---	0.00	29.889 
00:20	70.4	70.4	70.4	91	67.6	0	1	338	0.00	29.889 
00:25	70.4	70.4	70.4	91	67.6	0	0	---	0.00	29.889 
00:30	70.4	70.4	70.4	91	67.6	0	0	---	0.00	29.894 
00:35	70.3	70.3	70.3	91	67.5	0	0	---	0.00	29.894 
00:40	70.3	70.3	70.3	91	67.5	0	0	---	0.00	29.894 
00:45	70.3	70.3	70.3	91	67.5	0	1	338	0.00	29.893 
00:50	70.3	70.3	70.3	91	67.5	0	1	338	0.00	29.893 
00:55	70.1	70.1	70.1	92	67.7	0	1	338	0.00	29.893 
01:00	70.1	70.1	70.1	92	67.7	0	1	338	0.00	29.891 
01:05	70.1	70.1	70.1	92	67.7	0	1	338	0.00	29.891 
01:10	70.1	70.1	70.1	92	67.7	0	0	---	0.00	29.891 
01:15	70.1	70.1	70.1	92	67.7	0	1	338	0.00	29.892 
01:20	70.1	70.1	70.1	92	67.7	0	1	338	0.00	29.892 
01:25	69.9	69.9	69.9	92	67.5	0	1	338	0.00	29.892 
01:30	70.1	70.1	70.1	92	67.7	0	1	338	0.00	29.891 
01:35	70.1	70.1	70.1	92	67.7	0	1	338	0.00	29.891 
01:40	70.1	70.1	70.1	92	67.7	0	1	338	0.00	29.891 
01:45	70.1	70.1	70.1	92	67.7	0	2	338	0.00	29.890 
01:50	70.1	70.1	70.1	92	67.7	0	3	338	0.00	29.890 
01:55	70.3	70.3	70.3	92	67.9	1	3	338	0.00	29.890 
02:00	70.3	70.3	70.3	92	67.9	0	3	338	0.00	29.889 
02:05	70.3	70.3	70.3	92	67.9	1	3	315	0.00	29.889 
02:10	70.3	70.3	70.3	92	67.9	0	1	315	0.00	29.889 
02:15	70.1	70.1	70.1	92	67.7	0	2	315	0.00	29.888 
02:20	70.1	70.1	70.1	93	68.0	0	2	315	0.00	29.888 
02:25	70.1	70.1	70.1	93	68.0	0	2	315	0.00	29.888 
02:30	70.1	70.1	70.1	93	68.0	0	2	315	0.00	29.887 
02:35	70.1	70.1	70.1	93	68.0	0	2	315	0.00	29.887 
02:40	70.1	70.1	70.1	93	68.0	0	2	315	0.00	29.887 
02:45	70.1	70.1	70.1	93	68.0	0	2	315	0.00	29.886 
02:50	69.9	69.9	69.9	93	67.8	0	1	315	0.00	29.886 
02:55	69.9	69.9	69.9	93	67.8	0	2	315	0.00	29.886 
03:00	69.9	69.9	69.9	93	67.8	0	3	315	0.00	29.888 
03:05	69.9	69.9	69.9	93	67.8	0	1	315	0.00	29.888 
03:10	69.9	69.9	69.9	93	67.8	0	1	315	0.00	29.888 
03:15	69.9	69.9	69.9	93	67.8	0	1	315	0.00	29.893 
03:20	69.8	69.8	69.8	93	67.7	0	0	---	0.00	29.893 
03:25	69.8	69.8	69.8	93	67.7	0	0	---	0.00	29.893 
03:30	69.9	69.9	69.9	94	68.1	0	1	315	0.00	29.899 
03:35	69.9	69.9	69.9	94	68.1	0	1	315	0.00	29.899 
03:40	69.9	69.9	69.9	94	68.1	0	1	315	0.00	29.899 
03:45	70.1	70.1	70.1	94	68.3	0	2	315	0.00	29.904 
03:50	70.1	70.1	70.1	94	68.3	0	2	315	0.00	29.904 
03:55	70.1	70.1	70.1	94	68.3	0	0	---	0.00	29.904 
04:00	70.3	70.3	70.3	94	68.5	0	1	315	0.00	29.904 
04:05	70.3	70.3	70.3	94	68.5	0	0	---	0.00	29.904 
04:10	70.3	70.3	70.3	94	68.5	0	1	315	0.00	29.904 
04:15	70.4	70.4	70.4	94	68.6	0	0	---	0.00	29.905 
04:20	70.4	70.4	70.4	94	68.6	0	0	---	0.00	29.905 
04:25	70.4	70.4	70.4	94	68.6	0	0	---	0.00	29.905 
04:30	70.4	70.4	70.4	94	68.6	0	0	---	0.00	29.914 
04:35	70.6	70.6	70.6	94	68.8	0	0	---	0.00	29.914 
04:40	70.6	70.6	70.6	94	68.8	0	1	315	0.00	29.914 
04:45	70.6	70.6	70.6	94	68.8	0	0	---	0.00	29.915 
04:50	70.8	70.8	70.8	94	69.0	0	0	---	0.00	29.915 
04:55	70.8	70.8	70.8	94	69.0	0	1	315	0.00	29.915 
05:00	70.8	70.8	70.8	93	68.7	0	0	---	0.00	29.916 
05:05	70.8	70.8	70.8	93	68.7	0	1	315	0.00	29.916 
05:10	70.9	70.9	70.9	93	68.8	0	0	---	0.00	29.916 
05:15	70.9	70.9	70.9	93	68.8	0	0	---	0.00	29.915 
05:20	70.9	70.9	70.9	93	68.8	0	0	---	0.00	29.915 
05:25	70.9	70.9	70.9	93	68.8	0	0	---	0.00	29.915 
05:30	70.9	70.9	70.9	93	68.8	0	0	---	0.00	29.917 
05:35	70.9	70.9	70.9	93	68.8	0	0	---	0.00	29.917 
05:40	70.9	70.9	70.9	93	68.8	0	0	---	0.00	29.917 
05:45	70.9	70.9	70.9	93	68.8	0	0	---	0.00	29.918 
05:50	70.9	70.9	70.9	93	68.8	0	0	---	0.00	29.918 
05:55	70.9	70.9	70.9	93	68.8	0	0	---	0.00	29.918 
06:00	70.9	70.9	70.9	93	68.8	0	0	---	0.00	29.919 
06:05	71.1	71.1	71.1	93	69.0	0	0	---	0.00	29.919 
06:10	71.1	71.1	71.1	93	69.0	0	1	315	0.00	29.919 
06:15	71.1	71.1	71.1	93	69.0	0	0	---	0.00	29.928 
06:20	71.1	71.1	71.1	93	69.0	0	1	315	0.00	29.928 
06:25	71.1	71.1	71.1	92	68.7	0	1	315	0.00	29.928 
06:30	71.1	71.1	71.1	92	68.7	0	0	---	0.00	29.932 
06:35	71.1	71.1	71.1	92	68.7	0	0	---	0.00	29.932 
06:40	71.1	71.1	71.1	92	68.7	0	0	---	0.00	29.932 
06:45	71.1	71.1	71.1	92	68.7	0	1	315	0.00	29.933 
06:50	71.1	71.1	71.1	92	68.7	0	0	---	0.00	29.933 
06:55	71.1	71.1	71.1	92	68.7	0	1	315	0.00	29.933 
07:00	71.1	71.1	71.1	92	68.7	0	0	---	0.00	29.939 
07:05	70.9	70.9	70.9	92	68.5	0	1	315	0.00	29.939 
07:10	70.9	70.9	70.9	92	68.5	0	0	---	0.00	29.939 
07:15	70.9	70.9	70.9	91	68.1	0	1	315	0.00	29.949 
07:20	70.9	70.9	70.9	91	68.1	0	0	---	0.00	29.949 
07:25	70.9	70.9	70.9	91	68.1	0	1	315	0.00	29.949 
07:30	70.9	70.9	70.9	91	68.1	0	0	---	0.00	29.954 
07:35	70.9	70.9	70.9	91	68.1	0	2	315	0.00	29.954 
07:40	71.1	71.1	71.1	91	68.3	0	1	315	0.00	29.954 
07:45	71.1	71.1	71.1	91	68.3	0	1	315	0.00	29.963 
07:50	71.1	71.1	71.1	90	68.0	0	1	315	0.00	29.963 
07:55	71.3	71.3	71.3	91	68.5	0	1	315	0.00	29.963 
08:00	71.3	71.3	71.3	90	68.2	0	1	315	0.00	29.966 
08:05	71.3	71.3	71.3	90	68.2	0	1	315	0.00	29.966 
08:10	71.3	71.3	71.3	90	68.2	0	1	315	0.00	29.966 
08:15	71.5	71.5	71.5	90	68.4	0	1	315	0.00	29.970 
08:20	71.5	71.5	71.5	90	68.4	0	1	315	0.00	29.970 
08:25	71.6	71.6	71.6	90	68.5	0	1	315	0.00	29.970 
08:30	71.8	71.8	71.8	90	68.7	0	0	---	0.00	29.975 
08:35	71.8	71.8	71.8	90	68.7	0	2	315	0.00	29.975 
08:40	71.8	71.8	71.8	89	68.4	0	2	315	0.00	29.975 
08:45	72.1	72.1	72.1	89	68.7	0	2	315	0.00	29.978 
08:50	72.1	72.1	72.1	88	68.3	0	1	315	0.00	29.978 
08:55	72.3	72.3	72.3	88	68.5	0	2	315	0.00	29.978 
09:00	72.3	72.3	72.3	87	68.2	1	3	315	0.00	29.983 
09:05	72.5	72.5	72.5	87	68.4	0	1	315	0.00	29.983 
09:10	72.5	72.5	72.5	86	68.1	0	1	315	0.00	29.983 
09:15	72.8	72.8	72.8	85	68.0	0	1	315	0.00	29.987 
09:20	73.0	73.0	73.0	84	67.9	0	1	315	0.00	29.987 
09:25	73.0	73.0	73.0	83	67.5	0	1	315	0.00	29.987 
09:30	73.0	73.0	73.0	81	66.8	1	3	315	0.00	29.991 
09:35	73.0	73.0	73.0	80	66.5	0	2	315	0.00	29.991 
09:40	73.3	73.3	73.3	78	66.0	0	2	315	0.00	29.991 
09:45	73.2	73.2	73.2	77	65.5	1	3	315	0.00	29.994 
09:50	73.5	73.5	73.5	76	65.5	0	1	315	0.00	29.994 
09:55	74.2	74.2	74.2	73	65.0	1	4	68	0.00	29.994 
10:00	74.4	74.4	74.4	72	64.8	1	5	292	0.00	29.995 
10:05	74.0	74.0	74.0	73	64.8	1	3	292	0.00	29.995 
10:10	74.0	74.0	74.0	73	64.8	0	1	45	0.00	29.995 
10:15	73.9	73.9	73.9	73	64.7	0	2	45	0.00	29.998 
10:20	73.7	73.7	73.7	74	64.9	0	2	22	0.00	29.998 
10:25	74.6	74.6	74.6	73	65.4	0	3	22	0.00	29.998 
10:30	74.6	74.6	74.6	71	64.6	1	3	338	0.00	29.998 
10:35	74.0	74.0	74.0	72	64.4	0	4	270	0.00	29.998 
10:40	73.9	73.9	73.9	73	64.7	0	3	270	0.00	29.998 
10:45	74.2	74.2	74.2	72	64.6	1	4	22	0.00	30.007 
10:50	74.7	74.7	74.7	71	64.7	1	3	0	0.00	30.007 
10:55	75.3	75.3	77.0	70	64.8	0	2	338	0.00	30.007 
11:00	75.4	75.4	77.1	69	64.5	0	3	270	0.00	30.002 
11:05	76.0	76.0	77.7	69	65.1	0	4	22	0.00	30.002 
11:10	76.1	76.1	77.8	68	64.8	0	2	45	0.00	30.002 
11:15	76.3	76.3	78.1	66	64.1	1	3	292	0.00	30.012 
11:20	76.7	76.7	78.5	66	64.5	1	4	68	0.00	30.012 
11:25	76.3	76.3	78.1	66	64.1	1	3	270	0.00	30.012 
11:30	76.1	76.1	77.9	66	63.9	1	4	0	0.00	30.012 
11:35	76.5	76.5	78.3	68	65.1	1	3	0	0.00	30.012 
11:40	77.4	77.4	79.2	66	65.1	0	3	135	0.00	30.012 
11:45	77.7	77.7	79.5	65	65.0	1	2	135	0.00	30.011 
11:50	77.4	77.4	79.2	64	64.2	2	4	292	0.00	30.011 
11:55	76.8	76.8	78.6	65	64.1	1	3	292	0.00	30.011 
12:00	77.4	77.4	79.2	63	63.8	1	5	292	0.00	30.011 
12:05	77.4	77.4	79.2	64	64.2	1	4	292	0.00	30.011 
12:10	77.9	77.9	79.6	62	63.8	1	3	112	0.00	30.011 
12:15	78.1	78.1	79.9	63	64.5	0	2	0	0.00	30.011 
12:20	78.8	78.8	80.6	62	64.7	1	3	0	0.00	30.011 
12:25	78.8	78.8	80.5	60	63.7	1	3	270	0.00	30.011 
12:30	79.4	79.4	81.2	61	64.8	1	4	270	0.00	30.012 
12:35	79.0	79.0	80.7	60	63.9	1	5	338	0.00	30.012 
12:40	79.4	79.4	81.2	61	64.8	1	3	45	0.00	30.012 
12:45	79.8	79.8	81.6	60	64.7	0	3	22	0.00	30.009 
12:50	80.1	80.1	81.7	58	64.0	1	4	248	0.00	30.009 
12:55	80.1	80.1	81.7	58	64.0	1	3	315	0.00	30.009 
13:00	80.1	80.1	81.9	60	64.9	1	3	315	0.00	30.010 
13:05	80.3	80.3	82.2	60	65.1	1	5	315	0.00	30.010 
13:10	80.3	80.3	81.9	58	64.2	1	3	292	0.00	30.010 
13:15	80.1	80.1	81.7	58	64.0	1	4	292	0.00	30.008 
13:20	80.3	80.3	81.8	57	63.7	1	4	0	0.00	30.008 
13:25	80.3	80.3	82.1	59	64.6	1	4	270	0.00	30.008 
13:30	80.7	80.7	82.0	55	63.0	2	6	112	0.00	30.006 
13:35	80.9	80.9	82.1	54	62.7	0	4	45	0.00	30.006 
13:40	81.6	81.6	83.1	55	63.8	0	1	45	0.00	30.006 
13:45	82.2	82.2	83.8	55	64.4	0	2	45	0.00	30.000 
13:50	82.2	82.2	83.6	54	63.9	1	4	45	0.00	30.000 
13:55	82.4	82.4	83.7	53	63.5	1	5	90	0.00	30.000 
14:00	82.6	82.6	84.0	53	63.7	1	2	0	0.00	29.996 
14:05	82.6	82.6	83.6	51	62.6	1	4	292	0.00	29.996 
14:10	82.6	82.6	83.6	51	62.6	0	4	270	0.00	29.996 
14:15	82.4	82.4	83.5	52	63.0	1	2	292	0.00	29.995 
14:20	82.4	82.4	83.5	52	63.0	1	3	315	0.00	29.995 
14:25	82.4	82.4	83.5	52	63.0	1	3	315	0.00	29.995 
14:30	82.2	82.2	83.6	54	63.9	1	4	315	0.00	29.992 
14:35	82.8	82.8	84.0	52	63.3	1	3	292	0.00	29.992 
14:40	82.6	82.6	83.8	52	63.2	1	3	338	0.00	29.992 
14:45	82.6	82.6	83.4	50	62.0	1	5	112	0.00	29.991 
14:50	82.8	82.8	83.8	51	62.8	0	3	0	0.00	29.991 
14:55	83.2	83.2	83.8	48	61.4	1	2	202	0.00	29.991 
15:00	83.2	83.2	83.8	48	61.4	1	4	270	0.00	29.991 
15:05	83.2	83.2	83.8	48	61.4	1	3	0	0.00	29.991 
15:10	83.0	83.0	83.7	49	61.8	1	4	292	0.00	29.991 
15:15	83.4	83.4	84.6	51	63.3	1	5	315	0.00	29.991 
15:20	83.6	83.6	84.4	49	62.4	1	6	112	0.00	29.991 
15:25	83.6	83.6	84.1	47	61.2	1	4	315	0.00	29.991 
15:30	83.8	83.8	84.9	50	63.1	1	3	292	0.00	29.984 
15:35	83.8	83.8	84.7	49	62.6	1	3	315	0.00	29.984 
15:40	84.0	84.0	84.3	46	61.0	1	5	292	0.00	29.984 
15:45	84.5	84.5	84.7	45	60.8	1	3	248	0.00	29.981 
15:50	84.3	84.3	84.7	46	61.2	1	4	270	0.00	29.981 
15:55	84.3	84.3	84.7	46	61.2	1	3	315	0.00	29.981 
16:00	84.5	84.5	84.9	46	61.4	1	2	315	0.00	29.980 
16:05	84.7	84.7	85.2	46	61.6	1	5	68	0.00	29.980 
16:10	84.7	84.7	85.4	47	62.2	2	7	112	0.00	29.980 
16:15	84.9	84.9	86.1	49	63.6	1	5	90	0.00	29.977 
16:20	84.7	84.7	85.6	48	62.8	1	2	338	0.00	29.977 
16:25	84.3	84.3	84.9	47	61.8	1	4	315	0.00	29.977 
16:30	84.1	84.1	85.0	49	62.8	1	4	292	0.00	29.981 
16:35	84.5	84.5	85.8	50	63.8	0	2	292	0.00	29.981 
16:40	84.5	84.5	85.3	48	62.6	1	5	22	0.00	29.981 
16:45	84.3	84.3	85.1	48	62.4	1	4	292	0.00	29.981 
16:50	84.1	84.1	85.0	49	62.8	1	4	292	0.00	29.981 
16:55	84.1	84.1	85.0	49	62.8	0	2	292	0.00	29.981 
17:00	84.0	84.0	84.9	49	62.8	1	3	292	0.00	29.979 
17:05	83.6	83.6	84.4	49	62.4	2	3	338	0.00	29.979 
17:10	83.8	83.8	84.9	50	63.1	1	3	315	0.00	29.979 
17:15	83.8	83.8	84.9	50	63.1	1	3	315	0.00	29.983 
17:20	83.8	83.8	84.7	49	62.6	1	4	292	0.00	29.983 
17:25	84.0	84.0	84.7	48	62.2	1	2	202	0.00	29.983 
17:30	83.8	83.8	84.1	46	60.8	0	2	202	0.00	29.987 
17:35	83.6	83.6	83.9	46	60.6	1	2	22	0.00	29.987 
17:40	83.4	83.4	84.0	48	61.6	0	1	22	0.00	29.987 
17:45	83.4	83.4	83.8	47	61.0	0	3	22	0.00	29.983 
17:50	83.2	83.2	83.8	48	61.4	0	2	22	0.00	29.983 
17:55	83.2	83.2	83.8	48	61.4	1	3	315	0.00	29.983 
18:00	83.0	83.0	83.7	49	61.8	1	4	315	0.00	29.985 
18:05	82.6	82.6	83.6	51	62.6	0	3	90	0.00	29.985 
18:10	82.6	82.6	83.6	51	62.6	0	2	270	0.00	29.985 
18:15	82.6	82.6	83.3	49	61.5	0	1	270	0.00	29.987 
18:20	82.6	82.6	83.4	50	62.0	0	4	270	0.00	29.987 
18:25	82.6	82.6	83.6	51	62.6	1	3	270	0.00	29.987 
18:30	82.6	82.6	83.4	50	62.0	0	2	112	0.00	29.988 
18:35	82.4	82.4	83.2	50	61.9	1	6	135	0.00	29.988 
18:40	82.2	82.2	83.3	52	62.8	0	1	68	0.00	29.988 
18:45	81.8	81.8	82.7	51	61.9	0	4	68	0.00	29.991 
18:50	81.6	81.6	82.6	52	62.2	0	2	90	0.00	29.991 
18:55	81.2	81.2	82.2	52	61.9	0	4	90	0.00	29.991 
19:00	81.1	81.1	82.2	53	62.3	0	3	112	0.00	29.992 
19:05	80.7	80.7	81.8	53	62.0	0	4	112	0.00	29.992 
19:10	80.5	80.5	81.7	54	62.3	0	3	112	0.00	29.992 
19:15	80.3	80.3	81.5	54	62.1	0	5	135	0.00	29.992 
19:20	80.1	80.1	81.4	55	62.4	0	3	112	0.00	29.992 
19:25	79.9	79.9	81.2	55	62.3	0	4	112	0.00	29.992 
19:30	79.8	79.8	81.1	55	62.2	0	4	135	0.00	29.994 
19:35	79.4	79.4	80.8	56	62.3	0	3	90	0.00	29.994 
19:40	79.2	79.2	80.6	56	62.1	0	1	90	0.00	29.994 
19:45	79.0	79.0	80.4	56	61.9	0	1	90	0.00	29.995 
19:50	78.8	78.8	80.3	57	62.3	0	0	---	0.00	29.995 
19:55	78.6	78.6	80.1	58	62.6	0	1	90	0.00	29.995 
20:00	78.3	78.3	79.9	59	62.8	0	0	---	0.00	29.996 
20:05	78.1	78.1	79.7	59	62.6	0	1	90	0.00	29.996 
20:10	77.7	77.7	79.4	60	62.7	0	0	---	0.00	29.996 
20:15	77.4	77.4	79.1	61	62.9	0	0	---	0.00	29.995 
20:20	77.0	77.0	78.8	61	62.5	0	0	---	0.00	29.995 
20:25	76.7	76.7	78.5	62	62.7	0	0	---	0.00	29.995 
20:30	76.5	76.5	78.3	63	62.9	0	0	---	0.00	29.995 
20:35	76.1	76.1	78.0	63	62.6	0	0	---	0.00	29.995 
20:40	75.8	75.8	77.7	64	62.7	0	0	---	0.00	29.995 
20:45	75.4	75.4	77.4	65	62.8	0	0	---	0.00	29.997 
20:50	75.1	75.1	77.1	65	62.5	0	0	---	0.00	29.997 
20:55	74.9	74.9	74.9	66	62.8	0	0	---	0.00	29.997 
21:00	74.6	74.6	74.6	67	62.9	0	0	---	0.00	29.998 
21:05	74.2	74.2	74.2	68	62.9	0	0	---	0.00	29.998 
21:10	73.9	73.9	73.9	68	62.7	0	0	---	0.00	29.998 
21:15	73.5	73.5	73.5	69	62.7	0	0	---	0.00	29.998 
21:20	73.2	73.2	73.2	70	62.8	0	0	---	0.00	29.998 
21:25	73.0	73.0	73.0	70	62.6	0	0	---	0.00	29.998 
21:30	72.7	72.7	72.7	71	62.7	0	0	---	0.00	30.002 
21:35	72.5	72.5	72.5	72	62.9	0	0	---	0.00	30.002 
21:40	72.1	72.1	72.1	73	63.0	0	0	---	0.00	30.002 
21:45	71.8	71.8	71.8	74	63.1	0	0	---	0.00	30.006 
21:50	71.6	71.6	71.6	75	63.2	0	0	---	0.00	30.006 
21:55	71.3	71.3	71.3	75	63.0	0	0	---	0.00	30.006 
22:00	71.1	71.1	71.1	76	63.1	0	0	---	0.00	30.012 
22:05	70.9	70.9	70.9	76	62.9	0	0	---	0.00	30.012 
22:10	70.8	70.8	70.8	77	63.2	0	0	---	0.00	30.012 
22:15	70.6	70.6	70.6	77	63.0	0	0	---	0.00	30.008 
22:20	70.6	70.6	70.6	77	63.0	0	0	---	0.00	30.008 
22:25	70.4	70.4	70.4	78	63.2	0	0	---	0.00	30.008 
22:30	70.3	70.3	70.3	78	63.1	0	0	---	0.00	30.009 
22:35	70.1	70.1	70.1	79	63.3	0	0	---	0.00	30.009 
22:40	70.1	70.1	70.1	79	63.3	0	0	---	0.00	30.009 
22:45	70.3	70.3	70.3	80	63.8	0	0	---	0.00	30.012 
22:50	70.4	70.4	70.4	79	63.6	0	0	---	0.00	30.012 
22:55	70.9	70.9	70.9	78	63.7	0	0	---	0.00	30.012 
23:00	71.3	71.3	71.3	77	63.7	0	0	---	0.00	30.010 
23:05	71.6	71.6	71.6	77	64.0	0	1	90	0.00	30.010 
23:10	71.6	71.6	71.6	77	64.0	0	0	---	0.00	30.010 
23:15	71.5	71.5	71.5	77	63.9	0	1	90	0.00	30.009 
23:20	71.5	71.5	71.5	79	64.6	0	0	---	0.00	30.009 
23:25	71.3	71.3	71.3	80	64.8	0	1	90	0.00	30.009 
23:30	71.1	71.1	71.1	81	65.0	0	1	90	0.00	30.008 
23:35	70.9	70.9	70.9	81	64.8	0	1	90	0.00	30.008 
23:40	70.9	70.9	70.9	82	65.1	0	1	90	0.00	30.008 
23:45	70.8	70.8	70.8	83	65.4	0	1	90	0.00	30.004 
23:50	70.6	70.6	70.6	83	65.2	0	0	---	0.00	30.004 
23:55	70.6	70.6	70.6	84	65.5	0	0	---	0.00	30.004 

CoCoRaHS
IN-AL-39
A2 Web Hosting
Creative Commons License
GoDaddy
search engine by freefind advanced

loaded 2018-11-20 03:17:21 • last modified 2010-11-18 10:43:29
Privacy PolicyDisclaimer
• wx.awcolley.com is powered by PmWiki v.2002016 •
• all content (unless otherwise noted) © 2018 A W Colley